Time;durP1;ratioP1;P1;durP2;ratioP2;P2;SDS_P1;SDS_P2;PMS_P1;PMS_P2;Temp;Humidity;BMP_temperature;BMP_pressure;BME280_temperature;BME280_humidity;BME280_pressure;Samples;Min_cycle;Max_cycle;Signal;HPM_P1;HPM_P2
2023/10/12 00:02:27;;;;;;;19.60;11.05;;;18.40;99.90;;;;;;5036431;28;20032;-74
2023/10/12 00:07:33;;;;;;;18.60;10.97;;;18.30;99.90;;;;;;5035778;28;20021;-73
2023/10/12 00:10:02;;;;;;;21.13;11.55;;;18.30;99.90;;;;;;5036755;28;20275;-74
2023/10/12 00:12:34;;;;;;;20.08;11.82;;;18.30;99.90;;;;;;5034966;28;20029;-74
2023/10/12 00:15:05;;;;;;;22.23;12.40;;;18.20;99.90;;;;;;5035496;28;20029;-73
2023/10/12 00:17:33;;;;;;;21.83;12.55;;;18.30;99.90;;;;;;5036368;28;20432;-73
2023/10/12 00:19:59;;;;;;;22.30;13.52;;;18.20;99.90;;;;;;5035668;28;20520;-74
2023/10/12 00:22:25;;;;;;;18.65;12.02;;;18.30;99.90;;;;;;5035718;28;20108;-73
2023/10/12 00:24:52;;;;;;;21.02;13.18;;;18.30;99.90;;;;;;5035905;28;20061;-74
2023/10/12 00:27:18;;;;;;;20.88;12.65;;;18.30;99.90;;;;;;5035627;28;20025;-74
2023/10/12 00:29:48;;;;;;;18.15;12.18;;;18.20;99.90;;;;;;5035621;28;20030;-74
2023/10/12 00:32:14;;;;;;;18.10;12.88;;;18.20;99.90;;;;;;5035888;28;20041;-74
2023/10/12 00:34:53;;;;;;;22.45;13.23;;;18.20;99.90;;;;;;5033913;28;20037;-74
2023/10/12 00:37:19;;;;;;;21.98;14.23;;;18.20;99.90;;;;;;5035624;28;20386;-74
2023/10/12 00:40:23;;;;;;;23.25;13.57;;;18.20;99.90;;;;;;5036229;28;20041;-74
2023/10/12 00:42:34;;;;;;;22.35;14.35;;;18.20;99.90;;;;;;5034719;28;20052;-75
2023/10/12 00:45:11;;;;;;;19.98;14.48;;;18.10;99.90;;;;;;5034481;28;20044;-75
2023/10/12 00:47:44;;;;;;;26.88;14.38;;;18.10;99.90;;;;;;5035741;28;20103;-74
2023/10/12 00:50:14;;;;;;;25.38;14.43;;;18.10;99.90;;;;;;5035520;28;20057;-75
2023/10/12 00:53:31;;;;;;;25.92;15.40;;;18.00;99.90;;;;;;5035419;28;20029;-74
2023/10/12 00:55:37;;;;;;;25.05;15.38;;;18.00;99.90;;;;;;5035402;28;20049;-74
2023/10/12 00:58:05;;;;;;;23.83;15.88;;;18.00;99.90;;;;;;5034984;28;20064;-74
2023/10/12 01:00:35;;;;;;;25.05;14.45;;;18.00;99.90;;;;;;5034865;28;20033;-73
2023/10/12 01:03:09;;;;;;;29.55;16.95;;;18.00;99.90;;;;;;5035173;28;20022;-73
2023/10/12 01:05:35;;;;;;;27.05;16.77;;;18.00;99.90;;;;;;5034794;28;20034;-73
2023/10/12 01:08:05;;;;;;;28.52;16.98;;;18.00;99.90;;;;;;5034688;28;20029;-74
2023/10/12 01:10:33;;;;;;;31.48;16.80;;;18.00;99.90;;;;;;5033626;28;20390;-74
2023/10/12 01:13:02;;;;;;;31.75;17.75;;;17.90;99.90;;;;;;5050554;28;20361;-74
2023/10/12 01:15:30;;;;;;;31.85;17.38;;;17.90;99.90;;;;;;5034656;28;20033;-74
2023/10/12 01:17:56;;;;;;;22.10;15.68;;;17.90;99.90;;;;;;5033398;28;20037;-73
2023/10/12 01:20:26;;;;;;;32.05;16.90;;;17.90;99.90;;;;;;5034649;28;20026;-74
2023/10/12 01:22:57;;;;;;;29.73;17.52;;;17.90;99.90;;;;;;5033480;28;20030;-74
2023/10/12 01:25:28;;;;;;;33.45;18.02;;;17.80;99.90;;;;;;5034849;28;20026;-74
2023/10/12 01:27:55;;;;;;;33.05;18.45;;;17.80;99.90;;;;;;5035600;28;20037;-74
2023/10/12 01:30:27;;;;;;;29.65;18.10;;;17.80;99.90;;;;;;5034353;28;20033;-74
2023/10/12 01:32:59;;;;;;;32.60;19.02;;;17.80;99.90;;;;;;5034273;28;20471;-74
2023/10/12 01:35:38;;;;;;;35.88;17.85;;;17.80;99.90;;;;;;5034676;28;20095;-74
2023/10/12 01:38:05;;;;;;;30.17;19.08;;;17.80;99.90;;;;;;5034314;28;20049;-74
2023/10/12 01:40:52;;;;;;;35.05;18.50;;;17.80;99.90;;;;;;5034162;28;20064;-74
2023/10/12 01:43:18;;;;;;;31.67;19.85;;;17.80;99.90;;;;;;5034280;28;20030;-74
2023/10/12 01:45:45;;;;;;;29.98;19.75;;;17.80;99.90;;;;;;5016225;28;20037;-73
2023/10/12 01:48:22;;;;;;;35.92;19.75;;;17.70;99.90;;;;;;5034115;28;20031;-74
2023/10/12 01:50:49;;;;;;;32.65;20.63;;;17.80;99.90;;;;;;5034601;28;20104;-74
2023/10/12 01:55:48;;;;;;;28.08;18.60;;;17.70;99.90;;;;;;5034130;28;20128;-74
2023/10/12 01:58:21;;;;;;;24.30;17.20;;;17.70;99.90;;;;;;5033995;28;20034;-73
2023/10/12 02:00:52;;;;;;;;;;;17.60;99.90;;;;;;5034345;28;20034;-74
2023/10/12 02:03:31;;;;;;;33.80;18.25;;;17.60;99.90;;;;;;5034486;28;19962;-74
2023/10/12 02:06:05;;;;;;;29.05;17.77;;;17.60;99.90;;;;;;5034126;28;20470;-75
2023/10/12 02:08:32;;;;;;;25.48;17.38;;;17.60;99.90;;;;;;5034345;28;20030;-74
2023/10/12 02:11:26;;;;;;;23.42;17.13;;;17.60;99.90;;;;;;5033778;28;20030;-74
2023/10/12 02:13:56;;;;;;;28.42;19.20;;;17.60;99.90;;;;;;5034010;28;20120;-74
2023/10/12 02:16:31;;;;;;;32.42;19.40;;;17.60;99.90;;;;;;5049122;28;20040;-74
2023/10/12 02:18:58;;;;;;;25.05;18.10;;;17.60;99.90;;;;;;5033460;28;20112;-73
2023/10/12 02:21:26;;;;;;;28.65;18.30;;;17.60;99.90;;;;;;5015918;28;20377;-74
2023/10/12 02:26:33;;;;;;;22.38;15.25;;;17.60;99.90;;;;;;5033604;28;20052;-74
2023/10/12 02:31:39;;;;;;;24.63;14.35;;;17.60;99.90;;;;;;5033814;28;20040;-73
2023/10/12 02:34:17;;;;;;;24.38;14.57;;;17.60;99.90;;;;;;5033850;28;20027;-74
2023/10/12 02:36:59;;;;;;;24.75;13.73;;;17.60;99.90;;;;;;5032483;28;20445;-75
2023/10/12 02:39:26;;;;;;;21.63;12.95;;;17.70;99.90;;;;;;5034118;28;20034;-74
2023/10/12 02:42:10;;;;;;;23.42;13.27;;;17.60;99.90;;;;;;5032197;28;20132;-74
2023/10/12 02:44:42;;;;;;;22.42;12.90;;;17.70;99.90;;;;;;5033776;28;20157;-75
2023/10/12 02:47:23;;;;;;;22.85;12.45;;;17.70;99.90;;;;;;5032504;28;20029;-75
2023/10/12 02:49:49;;;;;;;22.35;13.52;;;17.70;99.90;;;;;;5033324;28;20064;-74
2023/10/12 02:52:15;;;;;;;28.08;13.23;;;17.80;99.90;;;;;;5033331;28;20025;-74
2023/10/12 02:54:51;;;;;;;18.85;11.50;;;17.80;99.90;;;;;;5033267;28;20029;-74
2023/10/12 02:57:25;;;;;;;25.58;11.18;;;17.80;99.90;;;;;;5033304;28;20159;-74
2023/10/12 03:02:33;;;;;;;18.08;9.75;;;17.70;99.90;;;;;;5033309;28;20053;-74
2023/10/12 03:05:06;;;;;;;21.60;9.48;;;17.70;99.90;;;;;;5033305;28;20072;-74
2023/10/12 03:07:35;;;;;;;18.35;9.13;;;17.70;99.90;;;;;;5033766;28;20059;-74
2023/10/12 03:10:06;;;;;;;18.85;8.55;;;17.60;99.90;;;;;;5033135;28;20458;-74
2023/10/12 03:12:35;;;;;;;18.60;8.90;;;17.60;99.90;;;;;;5033682;28;20053;-74
2023/10/12 03:15:11;;;;;;;17.02;8.90;;;17.60;99.90;;;;;;5033203;28;20037;-74
2023/10/12 03:17:37;;;;;;;19.27;8.98;;;17.70;99.90;;;;;;5032828;28;20044;-74
2023/10/12 03:20:21;;;;;;;20.80;9.75;;;17.70;99.90;;;;;;5033029;28;20037;-74
2023/10/12 03:22:51;;;;;;;15.88;8.52;;;17.70;99.90;;;;;;5032375;28;20116;-75
2023/10/12 03:25:28;;;;;;;21.77;9.98;;;17.60;99.90;;;;;;5033414;28;20034;-74
2023/10/12 03:27:54;;;;;;;17.55;8.50;;;17.70;99.90;;;;;;5032988;28;20069;-74
2023/10/12 03:30:34;;;;;;;16.77;9.13;;;17.70;99.90;;;;;;5015801;28;20074;-74
2023/10/12 03:33:03;;;;;;;17.40;9.10;;;17.70;99.90;;;;;;5035224;28;20037;-74
2023/10/12 03:35:34;;;;;;;15.40;8.00;;;17.80;99.90;;;;;;5036530;28;20033;-74
2023/10/12 03:38:12;;;;;;;20.02;8.48;;;17.80;99.90;;;;;;5037207;28;20042;-74
2023/10/12 03:40:51;;;;;;;12.98;8.00;;;17.80;99.90;;;;;;5036685;28;20501;-73
2023/10/12 03:43:40;;;;;;;17.17;7.35;;;17.90;99.90;;;;;;5035550;28;20037;-74
2023/10/12 03:46:17;;;;;;;13.35;7.32;;;17.90;99.90;;;;;;5036135;28;20053;-74
2023/10/12 03:51:38;;;;;;;17.17;7.70;;;17.90;99.90;;;;;;5036340;28;20036;-73
2023/10/12 03:54:11;;;;;;;15.70;7.63;;;17.90;99.90;;;;;;5036749;28;20041;-73
2023/10/12 03:56:39;;;;;;;17.90;8.32;;;17.90;99.90;;;;;;5035829;28;20359;-73
2023/10/12 03:59:08;;;;;;;15.35;7.70;;;18.00;99.90;;;;;;5034996;28;20434;-73
2023/10/12 04:01:40;;;;;;;15.27;7.68;;;18.00;99.90;;;;;;5035036;28;20034;-73
2023/10/12 04:04:53;;;;;;;14.13;7.25;;;18.00;99.90;;;;;;5036730;28;20029;-73
2023/10/12 04:09:43;;;;;;;15.05;6.95;;;18.00;99.90;;;;;;5036417;28;20030;-73
2023/10/12 04:23:48;;;;;;;17.45;7.18;;;18.10;99.90;;;;;;5036070;28;20031;-73
2023/10/12 04:28:11;;;;;;;14.80;7.50;;;18.10;99.90;;;;;;5035330;28;20091;-73
2023/10/12 04:31:20;;;;;;;14.00;7.30;;;18.10;99.90;;;;;;5035552;28;20048;-73
2023/10/12 04:34:15;;;;;;;12.98;7.30;;;18.10;99.90;;;;;;5035212;28;20033;-73
2023/10/12 04:36:24;;;;;;;17.13;7.55;;;18.20;99.90;;;;;;5031320;28;20041;-73
2023/10/12 04:39:12;;;;;;;13.35;7.45;;;18.20;99.90;;;;;;5035409;28;20117;-73
2023/10/12 04:41:38;;;;;;;13.13;7.05;;;18.10;99.90;;;;;;5035314;28;20056;-73
2023/10/12 04:47:05;;;;;;;17.27;7.88;;;18.20;99.90;;;;;;5006132;28;20116;-73
2023/10/12 04:54:28;;;;;;;18.90;7.72;;;18.10;99.90;;;;;;5034626;28;20037;-72
2023/10/12 04:57:11;;;;;;;15.45;8.40;;;18.10;99.90;;;;;;5033430;28;20382;-72
2023/10/12 04:59:49;;;;;;;19.10;8.63;;;18.20;99.90;;;;;;5035222;28;20025;-72
2023/10/12 05:05:14;;;;;;;19.30;8.63;;;18.10;99.90;;;;;;5035122;28;20063;-72
2023/10/12 05:07:53;;;;;;;15.35;8.23;;;18.10;99.90;;;;;;5033379;28;20040;-71
2023/10/12 05:10:27;;;;;;;16.48;7.65;;;18.10;99.90;;;;;;5035599;28;20382;-72
2023/10/12 05:12:57;;;;;;;17.10;8.95;;;18.10;99.90;;;;;;5034555;28;20451;-72
2023/10/12 05:15:27;;;;;;;19.58;9.10;;;18.10;99.90;;;;;;5033873;28;20030;-72
2023/10/12 05:17:53;;;;;;;21.65;9.43;;;18.10;99.90;;;;;;5034530;28;20445;-72
2023/10/12 05:20:23;;;;;;;17.40;8.35;;;18.00;99.90;;;;;;5033867;28;20029;-72
2023/10/12 05:22:48;;;;;;;17.48;8.98;;;18.00;99.90;;;;;;5034526;28;20034;-73
2023/10/12 05:25:14;;;;;;;14.57;8.52;;;18.10;99.90;;;;;;5034628;28;20468;-74
2023/10/12 05:27:55;;;;;;;11.48;6.43;;;18.00;99.90;;;;;;5033450;28;20382;-75
2023/10/12 05:30:26;;;;;;;14.18;7.07;;;18.00;99.90;;;;;;5019264;28;20083;-75
2023/10/12 05:32:56;;;;;;;10.73;6.63;;;18.00;99.90;;;;;;5034115;28;20026;-77
2023/10/12 05:35:46;;;;;;;10.77;5.95;;;18.10;99.90;;;;;;5034403;28;20112;-77
2023/10/12 05:38:07;;;;;;;16.23;7.35;;;18.10;99.90;;;;;;5034146;28;20095;-77
2023/10/12 05:40:35;;;;;;;20.55;9.90;;;18.10;99.90;;;;;;5032676;28;20140;-77
2023/10/12 05:43:09;;;;;;;17.65;9.57;;;18.10;99.90;;;;;;5032955;28;20090;-77
2023/10/12 05:45:34;;;;;;;17.10;9.00;;;18.10;99.90;;;;;;5034743;28;20176;-78
2023/10/12 05:48:00;;;;;;;19.35;11.23;;;18.20;99.90;;;;;;5033931;28;20061;-77
2023/10/12 05:50:28;;;;;;;12.25;7.28;;;18.10;99.90;;;;;;5032582;28;20033;-78
2023/10/12 05:52:59;;;;;;;13.07;6.88;;;18.10;99.90;;;;;;5034312;28;20090;-78
2023/10/12 05:55:25;;;;;;;13.57;8.52;;;18.10;99.90;;;;;;5033629;28;20132;-79
2023/10/12 05:57:55;;;;;;;13.88;9.20;;;18.20;99.90;;;;;;5032701;28;20041;-80
2023/10/12 06:00:35;;;;;;;15.57;9.95;;;18.20;99.90;;;;;;5034052;28;20032;-79
2023/10/12 06:03:10;;;;;;;15.32;10.70;;;18.20;99.90;;;;;;5034414;28;20382;-79
2023/10/12 06:05:36;;;;;;;14.30;8.50;;;18.20;99.90;;;;;;5050407;28;20033;-79
2023/10/12 06:08:05;;;;;;;11.05;6.78;;;18.10;99.90;;;;;;5036733;28;20030;-81
2023/10/12 06:10:33;;;;;;;12.60;7.65;;;18.20;99.90;;;;;;5038654;28;20036;-83
2023/10/12 06:12:59;;;;;;;9.85;6.03;;;18.20;99.90;;;;;;5038767;28;20037;-83
2023/10/12 06:15:25;;;;;;;7.80;4.90;;;18.20;99.90;;;;;;5038468;28;20061;-84
2023/10/12 06:17:55;;;;;;;7.78;4.28;;;18.20;99.90;;;;;;5043952;28;20033;-83
2023/10/12 06:20:31;;;;;;;5.85;2.67;;;18.30;99.90;;;;;;5041035;28;20025;-83
2023/10/12 06:22:57;;;;;;;3.92;1.83;;;18.20;99.90;;;;;;5043821;28;20116;-85
2023/10/12 06:25:23;;;;;;;3.22;2.38;;;18.10;99.90;;;;;;5038009;28;20512;-86
2023/10/12 06:27:49;;;;;;;1.73;0.63;;;18.10;99.90;;;;;;5036693;28;20036;-83
2023/10/12 06:30:18;;;;;;;2.97;0.60;;;18.10;99.90;;;;;;5036013;28;20108;-86
2023/10/12 06:32:47;;;;;;;3.20;0.22;;;17.90;99.90;;;;;;5036495;28;20108;-87
2023/10/12 06:35:23;;;;;;;1.17;0.40;;;17.60;99.90;;;;;;5037743;28;20124;-84
2023/10/12 06:45:46;;;;;;;2.83;0.60;;;17.40;99.90;;;;;;5044158;28;20097;-82
2023/10/12 06:53:36;;;;;;;3.08;0.73;;;17.20;99.90;;;;;;5044921;28;20032;-82
2023/10/12 06:58:42;;;;;;;2.05;0.43;;;17.20;99.90;;;;;;5041751;28;20038;-83
2023/10/12 07:01:27;;;;;;;1.85;0.70;;;17.20;99.90;;;;;;5041179;28;20068;-83
2023/10/12 07:03:53;;;;;;;2.88;1.00;;;17.20;99.90;;;;;;5040684;28;20033;-84
2023/10/12 07:06:19;;;;;;;1.90;0.40;;;17.10;99.90;;;;;;5041494;28;20529;-85
2023/10/12 07:08:46;;;;;;;1.73;0.30;;;17.10;99.90;;;;;;5039814;28;20028;-85
2023/10/12 07:11:17;;;;;;;3.20;0.70;;;17.00;99.90;;;;;;5040858;28;20057;-84
2023/10/12 07:13:45;;;;;;;3.05;0.70;;;17.00;99.90;;;;;;5043696;28;20038;-85
2023/10/12 07:16:15;;;;;;;3.60;0.80;;;17.00;99.90;;;;;;5040541;28;20037;-85
2023/10/12 07:18:44;;;;;;;2.25;0.75;;;16.90;99.90;;;;;;5038589;28;20041;-83
2023/10/12 07:21:22;;;;;;;3.72;0.93;;;16.90;99.90;;;;;;5052221;28;20030;-81
2023/10/12 07:23:56;;;;;;;4.03;1.20;;;16.80;99.90;;;;;;5057650;28;20036;-83
2023/10/12 07:26:23;;;;;;;2.55;0.90;;;16.70;99.90;;;;;;5050816;28;20382;-85
2023/10/12 07:28:55;;;;;;;4.05;1.20;;;16.60;99.90;;;;;;5051104;28;20090;-84
2023/10/12 07:31:41;;;;;;;3.63;1.30;;;16.60;99.90;;;;;;5049824;28;20029;-84
2023/10/12 07:34:13;;;;;;;4.20;1.40;;;16.70;99.90;;;;;;5039130;28;20038;-83
2023/10/12 07:39:17;;;;;;;3.45;1.25;;;16.90;99.90;;;;;;5053541;28;20021;-82
2023/10/12 07:44:38;;;;;;;2.47;1.27;;;16.90;99.90;;;;;;5211057;22;20049;-81
2023/10/12 07:47:13;;;;;;;3.60;1.10;;;16.90;99.90;;;;;;5052505;28;20034;-81
2023/10/12 07:49:47;;;;;;;2.85;1.27;;;16.90;99.90;;;;;;5054053;28;20128;-78
2023/10/12 07:57:14;;;;;;;1.50;0.90;;;17.00;99.90;;;;;;5030461;28;20049;-82
2023/10/12 07:59:49;;;;;;;2.60;1.00;;;17.10;99.90;;;;;;5008517;28;20029;-83
2023/10/12 08:02:15;;;;;;;1.95;0.88;;;17.00;99.90;;;;;;5005682;28;20111;-81
2023/10/12 08:05:16;;;;;;;1.30;0.47;;;17.00;99.90;;;;;;5022326;28;20036;-82
2023/10/12 08:07:28;;;;;;;1.73;0.60;;;17.00;99.90;;;;;;5021927;28;20070;-82
2023/10/12 08:10:09;;;;;;;2.00;0.63;;;16.90;99.90;;;;;;5003261;28;20026;-82
2023/10/12 08:12:36;;;;;;;1.88;0.60;;;16.90;99.90;;;;;;5018379;28;20038;-82
2023/10/12 08:15:15;;;;;;;1.52;0.63;;;16.90;99.90;;;;;;5002500;28;20077;-79
2023/10/12 08:17:45;;;;;;;1.55;0.38;;;16.90;99.90;;;;;;5047989;22;20050;-81
2023/10/12 08:23:02;;;;;;;2.97;0.30;;;17.00;99.90;;;;;;5003837;28;20084;-82
2023/10/12 08:25:37;;;;;;;1.90;0.50;;;17.00;99.90;;;;;;5014840;28;20037;-82
2023/10/12 08:28:18;;;;;;;1.33;0.50;;;17.00;99.90;;;;;;5028630;28;20475;-81
2023/10/12 08:31:02;;;;;;;1.40;0.30;;;16.90;99.90;;;;;;5018560;28;20098;-81
2023/10/12 08:38:52;;;;;;;2.92;0.30;;;17.00;99.90;;;;;;5037793;28;20061;-82
2023/10/12 08:44:03;;;;;;;1.73;0.43;;;16.70;99.90;;;;;;5036799;28;20029;-79
2023/10/12 08:46:56;;;;;;;1.13;0.15;;;16.70;99.90;;;;;;5038362;28;20018;-81
2023/10/12 08:49:34;;;;;;;2.55;0.30;;;16.70;99.90;;;;;;5038277;28;20053;-80
2023/10/12 08:52:18;;;;;;;0.95;0.30;;;16.60;99.90;;;;;;5037180;28;20045;-81
2023/10/12 08:55:12;;;;;;;1.73;0.45;;;16.70;99.90;;;;;;5037019;28;20021;-82
2023/10/12 08:57:55;;;;;;;2.95;0.35;;;16.70;99.90;;;;;;5019909;28;20034;-81
2023/10/12 09:03:06;;;;;;;1.42;0.35;;;16.80;99.90;;;;;;5027962;28;20041;-83
2023/10/12 09:05:33;;;;;;;0.88;0.20;;;16.80;99.90;;;;;;5030474;28;20062;-82
2023/10/12 09:10:56;;;;;;;1.10;0.30;;;16.90;99.90;;;;;;5033715;28;20037;-80
2023/10/12 09:13:27;;;;;;;0.82;0.40;;;16.80;99.90;;;;;;5003379;28;20066;-81
2023/10/12 09:15:57;;;;;;;1.25;0.30;;;16.80;99.90;;;;;;5022142;28;20041;-81
2023/10/12 09:18:26;;;;;;;0.95;0.22;;;16.80;99.90;;;;;;5025102;28;20049;-82
2023/10/12 09:23:29;;;;;;;2.57;0.20;;;16.50;99.90;;;;;;5017973;28;20041;-82
2023/10/12 09:26:13;;;;;;;1.20;0.45;;;16.60;99.90;;;;;;5026669;28;20030;-82
2023/10/12 09:36:28;;;;;;;0.70;0.30;;;16.90;99.90;;;;;;5344344;22;20179;-82
2023/10/12 09:38:57;;;;;;;1.30;0.30;;;17.00;99.90;;;;;;5057873;28;20020;-79
2023/10/12 09:44:13;;;;;;;0.90;0.25;;;17.00;99.90;;;;;;5972802;23;20233;-75
2023/10/12 09:46:47;;;;;;;1.45;0.40;;;17.00;99.90;;;;;;5177502;23;21168;31
2023/10/12 09:51:54;;;;;;;2.90;0.55;;;17.20;99.90;;;;;;5465928;22;20042;-80
2023/10/12 09:54:28;;;;;;;1.08;0.50;;;17.20;99.90;;;;;;5254237;23;20088;-80
2023/10/12 09:57:04;;;;;;;1.67;0.70;;;17.20;99.90;;;;;;5082077;22;20049;-79
2023/10/12 09:59:31;;;;;;;4.47;0.95;;;17.10;99.90;;;;;;5261554;23;20055;-81
2023/10/12 10:02:06;;;;;;;1.10;0.63;;;17.10;99.90;;;;;;5077070;28;20025;-83
2023/10/12 10:04:35;;;;;;;1.83;0.80;;;17.10;99.90;;;;;;5077081;28;20028;-82
2023/10/12 10:07:26;;;;;;;2.42;1.10;;;17.20;99.90;;;;;;5075891;28;20041;-82
2023/10/12 10:09:58;;;;;;;4.28;2.00;;;17.20;99.90;;;;;;5089993;22;20189;-82
2023/10/12 10:12:27;;;;;;;1.70;1.33;;;17.20;99.90;;;;;;5059173;28;20012;-82
2023/10/12 10:14:57;;;;;;;3.05;1.35;;;17.20;99.90;;;;;;5059460;28;20041;-82
2023/10/12 10:17:36;;;;;;;2.08;1.52;;;17.20;99.90;;;;;;5074308;28;20448;-83
2023/10/12 10:22:56;;;;;;;1.83;1.15;;;17.30;99.90;;;;;;5074418;28;20052;-82
2023/10/12 10:25:27;;;;;;;2.55;1.17;;;17.30;99.90;;;;;;5075487;28;20017;-82
2023/10/12 10:27:56;;;;;;;1.58;1.05;;;17.30;99.90;;;;;;5075212;28;20071;-84
2023/10/12 10:30:36;;;;;;;2.95;1.40;;;17.30;99.90;;;;;;5057563;28;20009;-84
2023/10/12 10:33:07;;;;;;;2.42;1.35;;;17.40;99.90;;;;;;5075259;28;20063;-83
2023/10/12 10:36:10;;;;;;;1.85;1.30;;;17.40;99.90;;;;;;5076371;28;20032;-84
2023/10/12 10:38:46;;;;;;;4.38;2.30;;;17.50;99.90;;;;;;5081560;23;20120;-83
2023/10/12 10:41:22;;;;;;;2.65;1.77;;;17.40;99.90;;;;;;5064440;28;20012;-84
2023/10/12 10:43:47;;;;;;;2.67;1.85;;;17.30;99.90;;;;;;5082591;28;20066;-84
2023/10/12 10:46:17;;;;;;;2.42;1.40;;;17.30;99.90;;;;;;5064991;28;20028;-83
2023/10/12 10:48:49;;;;;;;1.80;0.98;;;17.40;99.90;;;;;;5185142;22;20041;-83
2023/10/12 10:51:24;;;;;;;2.63;1.95;;;17.50;99.90;;;;;;5236210;22;20068;-83
2023/10/12 10:53:53;;;;;;;3.40;2.78;;;17.50;99.90;;;;;;5064795;28;20071;-82
2023/10/12 10:56:38;;;;;;;4.47;2.38;;;17.50;99.90;;;;;;5213569;22;20061;-83
2023/10/12 10:59:12;;;;;;;4.68;2.15;;;17.40;99.90;;;;;;5217334;22;20833;-81
2023/10/12 11:01:48;;;;;;;1.60;1.20;;;17.40;99.90;;;;;;5172724;22;20041;-81
2023/10/12 11:04:19;;;;;;;1.70;1.05;;;17.50;99.90;;;;;;5083682;28;20028;-81
2023/10/12 11:06:49;;;;;;;1.95;1.20;;;17.60;99.90;;;;;;5297768;22;21492;-78
2023/10/12 11:09:16;;;;;;;3.70;1.90;;;17.70;99.90;;;;;;5485904;22;20098;-82
2023/10/12 11:11:53;;;;;;;4.13;1.70;;;17.70;99.90;;;;;;5065859;28;20013;-82
2023/10/12 11:14:22;;;;;;;4.93;2.40;;;17.70;99.90;;;;;;5082010;28;20024;-82
2023/10/12 11:16:51;;;;;;;3.20;2.30;;;17.80;99.90;;;;;;5323447;22;20067;-83
2023/10/12 11:19:23;;;;;;;4.93;2.70;;;17.80;99.90;;;;;;5403685;22;20072;-83
2023/10/12 11:21:52;;;;;;;4.57;3.25;;;17.80;99.90;;;;;;5110322;22;20049;-77
2023/10/12 11:24:20;;;;;;;4.05;3.00;;;17.80;99.90;;;;;;5058602;28;20044;-78
2023/10/12 11:26:54;;;;;;;3.10;2.63;;;17.80;99.90;;;;;;5062355;28;20082;-80
2023/10/12 11:29:22;;;;;;;4.82;2.78;;;17.70;99.90;;;;;;5062102;28;20028;-81
2023/10/12 11:32:08;;;;;;;4.78;2.72;;;17.70;99.90;;;;;;5040104;28;20491;-80
2023/10/12 11:34:45;;;;;;;4.38;2.72;;;17.80;99.90;;;;;;5060059;28;20108;-81
2023/10/12 11:37:14;;;;;;;3.83;3.15;;;17.80;99.90;;;;;;5042223;28;20052;-78
2023/10/12 11:39:45;;;;;;;2.95;2.58;;;17.80;99.90;;;;;;5058771;28;20107;-80
2023/10/12 11:42:12;;;;;;;2.80;2.08;;;17.80;99.90;;;;;;5058390;28;20056;-81
2023/10/12 11:44:42;;;;;;;3.03;2.40;;;17.90;99.90;;;;;;5058643;28;20036;-80
2023/10/12 11:47:28;;;;;;;5.78;3.45;;;18.00;99.90;;;;;;5059148;28;20507;-80
2023/10/12 11:49:58;;;;;;;3.83;2.30;;;18.10;99.90;;;;;;5046164;28;20045;-80
2023/10/12 11:52:40;;;;;;;4.32;3.13;;;18.10;99.90;;;;;;5038336;28;20041;-75
2023/10/12 11:55:19;;;;;;;7.82;5.78;;;18.10;99.90;;;;;;5054237;28;20036;-76
2023/10/12 11:57:54;;;;;;;7.75;5.85;;;18.10;99.90;;;;;;5050977;28;20041;-76
2023/10/12 12:00:21;;;;;;;7.80;5.03;;;18.10;99.90;;;;;;5054279;28;20055;-78
2023/10/12 12:02:52;;;;;;;5.60;4.95;;;18.10;99.90;;;;;;5035842;28;20142;-77
2023/10/12 12:05:19;;;;;;;6.60;4.75;;;18.10;99.90;;;;;;5054921;28;20040;-76
2023/10/12 12:07:51;;;;;;;8.38;5.63;;;18.10;99.90;;;;;;5054567;28;20037;-76
2023/10/12 12:10:45;;;;;;;10.10;6.97;;;18.00;99.90;;;;;;5020269;28;20037;-76
2023/10/12 12:13:09;;;;;;;7.30;6.57;;;18.00;99.90;;;;;;5053230;28;20065;-76
2023/10/12 12:15:35;;;;;;;7.63;6.15;;;18.00;99.90;;;;;;5053873;28;20069;-77
2023/10/12 12:18:05;;;;;;;7.78;6.20;;;17.90;99.90;;;;;;5052077;28;20029;-78
2023/10/12 12:20:39;;;;;;;7.68;6.85;;;18.00;99.90;;;;;;5036716;28;20044;-78
2023/10/12 12:23:05;;;;;;;8.68;7.53;;;18.00;99.90;;;;;;5053135;28;20477;-77
2023/10/12 12:25:34;;;;;;;13.60;9.48;;;17.90;99.90;;;;;;5053612;28;20025;-77
2023/10/12 12:28:02;;;;;;;11.43;8.57;;;17.90;99.90;;;;;;5054168;28;20033;-77
2023/10/12 12:30:35;;;;;;;14.32;9.60;;;17.90;99.90;;;;;;5055555;28;20029;-76
2023/10/12 12:33:08;;;;;;;12.43;8.68;;;17.90;99.90;;;;;;5036110;28;20021;-76
2023/10/12 12:35:36;;;;;;;12.80;9.38;;;17.90;99.90;;;;;;5051345;28;20072;-76
2023/10/12 12:38:06;;;;;;;13.65;9.85;;;17.90;99.90;;;;;;5053369;28;20037;-76
2023/10/12 12:40:38;;;;;;;11.35;9.30;;;18.00;99.90;;;;;;5052054;28;20494;-75
2023/10/12 12:43:07;;;;;;;;;;;17.90;99.90;;;;;;5053502;28;20045;-76
2023/10/12 12:45:35;;;;;;;11.18;8.68;;;17.90;99.90;;;;;;5053680;28;20292;-76
2023/10/12 12:48:01;;;;;;;11.23;8.27;;;17.90;99.90;;;;;;5052267;28;20048;-77
2023/10/12 12:50:28;;;;;;;12.57;10.95;;;17.90;99.90;;;;;;5047019;28;20040;-77
2023/10/12 12:52:54;;;;;;;13.98;10.40;;;17.90;99.90;;;;;;5053106;28;20033;-76
2023/10/12 12:55:22;;;;;;;14.82;10.35;;;17.90;99.90;;;;;;5052737;28;20371;-76
2023/10/12 12:57:47;;;;;;;14.70;11.40;;;17.90;99.90;;;;;;5052945;28;20045;-76
2023/10/12 13:00:20;;;;;;;12.57;10.00;;;17.90;99.90;;;;;;5052980;28;20048;-75
2023/10/12 13:02:46;;;;;;;14.90;12.00;;;17.80;99.90;;;;;;5051092;28;20102;-76
2023/10/12 13:05:12;;;;;;;14.07;10.63;;;17.90;99.90;;;;;;5030927;28;20428;-76
2023/10/12 13:07:38;;;;;;;14.15;10.48;;;17.80;99.90;;;;;;5049253;28;20032;-76
2023/10/12 13:10:06;;;;;;;13.57;10.13;;;17.80;99.90;;;;;;5052999;28;20472;-76
2023/10/12 13:12:32;;;;;;;15.18;11.07;;;17.80;99.90;;;;;;5049398;28;20036;-76
2023/10/12 13:15:01;;;;;;;12.15;9.88;;;17.80;99.90;;;;;;5052578;28;20053;-75
2023/10/12 13:17:30;;;;;;;16.77;12.43;;;17.90;99.90;;;;;;5035614;28;20469;-76
2023/10/12 13:19:59;;;;;;;15.60;10.30;;;17.90;99.90;;;;;;5052073;28;20123;-76
2023/10/12 13:22:27;;;;;;;13.45;10.85;;;17.90;99.90;;;;;;5054432;28;20492;-76
2023/10/12 13:24:58;;;;;;;12.52;10.35;;;17.90;99.90;;;;;;5041890;28;20132;-75
2023/10/12 13:27:27;;;;;;;16.02;11.63;;;17.80;99.90;;;;;;5029840;28;20040;-76
2023/10/12 13:29:59;;;;;;;18.15;12.63;;;17.90;99.90;;;;;;5041564;28;20036;-75
2023/10/12 13:32:26;;;;;;;17.23;11.82;;;17.80;99.90;;;;;;5036303;28;20389;-76
2023/10/12 13:34:52;;;;;;;14.15;10.82;;;17.70;99.90;;;;;;5056777;28;20045;-78
2023/10/12 13:37:18;;;;;;;16.40;11.63;;;17.70;99.90;;;;;;5052878;28;20067;-77
2023/10/12 13:39:43;;;;;;;12.57;9.00;;;17.60;99.90;;;;;;5051598;28;20061;-76
2023/10/12 13:42:11;;;;;;;14.70;11.05;;;17.60;99.90;;;;;;5051894;28;20037;-76
2023/10/12 13:44:42;;;;;;;10.65;8.05;;;17.60;99.90;;;;;;5031420;28;20041;-76
2023/10/12 13:47:08;;;;;;;9.82;8.02;;;17.70;99.90;;;;;;5050039;28;20409;-76
2023/10/12 13:49:37;;;;;;;14.50;10.70;;;17.70;99.90;;;;;;5030200;28;20034;-77
2023/10/12 13:52:09;;;;;;;15.65;10.98;;;17.70;99.90;;;;;;5035053;28;20458;-75
2023/10/12 13:54:35;;;;;;;15.23;11.00;;;17.80;99.90;;;;;;5050086;28;20048;-77
2023/10/12 13:57:02;;;;;;;18.40;11.43;;;17.70;99.90;;;;;;5036248;28;20036;-76
2023/10/12 13:59:29;;;;;;;19.48;13.43;;;17.70;99.90;;;;;;5050586;28;20065;-76
2023/10/12 14:01:56;;;;;;;20.83;12.85;;;17.70;99.90;;;;;;5045192;28;20366;-76
2023/10/12 14:04:33;;;;;;;22.80;13.73;;;17.50;99.90;;;;;;5047376;28;20036;-77
2023/10/12 14:07:01;;;;;;;18.00;13.00;;;17.50;99.90;;;;;;5041315;28;20030;-77
2023/10/12 14:09:33;;;;;;;18.75;13.23;;;17.40;99.90;;;;;;5019351;28;20458;-76
2023/10/12 14:11:59;;;;;;;20.48;14.20;;;17.40;99.90;;;;;;5044684;28;20371;-77
2023/10/12 14:14:25;;;;;;;19.63;14.27;;;17.40;99.90;;;;;;5050399;28;20098;-76
2023/10/12 14:16:51;;;;;;;17.48;13.15;;;17.50;99.90;;;;;;5051492;28;20059;-77
2023/10/12 14:19:22;;;;;;;14.38;11.13;;;17.50;99.90;;;;;;5051758;28;20028;-78
2023/10/12 14:21:52;;;;;;;17.33;12.68;;;17.50;99.90;;;;;;5051179;28;20071;-76
2023/10/12 14:24:23;;;;;;;16.27;12.75;;;17.60;99.90;;;;;;5051877;28;20025;-76
2023/10/12 14:26:55;;;;;;;15.95;11.85;;;17.60;99.90;;;;;;5051129;28;20040;-75
2023/10/12 14:29:20;;;;;;;16.98;11.55;;;17.60;99.90;;;;;;5052027;28;20163;-74
2023/10/12 14:31:47;;;;;;;15.40;12.55;;;17.70;99.90;;;;;;5051242;28;20115;-74
2023/10/12 14:34:16;;;;;;;19.10;12.48;;;17.70;99.90;;;;;;5049780;28;20040;-77
2023/10/12 14:36:44;;;;;;;24.20;16.08;;;17.70;99.90;;;;;;5048040;28;20033;-76
2023/10/12 14:39:14;;;;;;;20.20;14.45;;;17.70;99.90;;;;;;5043497;28;20025;-75
2023/10/12 14:41:39;;;;;;;25.58;15.50;;;17.60;99.90;;;;;;5050580;28;20476;-74
2023/10/12 14:44:05;;;;;;;21.15;16.15;;;17.60;99.90;;;;;;5050352;28;20037;-74
2023/10/12 14:46:31;;;;;;;22.70;16.35;;;17.50;99.90;;;;;;5050341;28;20029;-77